Airfield :
LOGIN :

Register | Disclaimer

   EN    FR    IT 

 










Legend :    VFR   Marginal VFR   IFR   Intensive IFR   Very Intensive IFR
Visi :
Ceiling :
>= 8 km
>= 3000ft
5 to 8 km
1000 to 3000 ft
1500m to 5 km
500 to 1000 ft
800 to 1500m
200 to 500 ft
< 800m
< 200 ft
Symbols :   Thunderstorms  Fog  Heavy snow  Heavy precipitations  Wind > 20 kt
SIGMETs :     Misc.  Thunderstorms  Icing  Turbulence  Mountain Waves  Volcanic Ashes







- Airport Elevation : 20 ft
- IATA code : DLM


LTBS - Dalaman

CURRENT METAR :
  • 161850Z VRB01KT 9999 FEW025 BKN180 24/20 Q1007 NOSIG RMK RWY19 36002KT

EXPIRED METARs :
  • 161820Z 19003KT 9999 FEW025 BKN180 25/21 Q1007 NOSIG RMK RWY19 00000KT
  • 161750Z 19005KT 9999 FEW025 BKN180 25/21 Q1007 NOSIG RMK RWY19 15004KT 110V200
  • 161720Z 20005KT 9999 FEW025 BKN180 25/21 Q1007 NOSIG
  • 161650Z 21006KT 9999 FEW025 BKN180 25/21 Q1006 NOSIG RMK RWY19 17006KT 130V210
  • 161620Z 22007KT 9999 SCT025 BKN100 26/21 Q1007 NOSIG

TAF TAF LTBS
Valid from the 16 at 18:00 until the 17 at 18:00 UTC


161640Z 1618/1718 VRB02KT 9999 SCT030
BECMG 1620/1622 CAVOK
BECMG 1706/1708 21012KT SCT030
BECMG 1716/1718 VRB02KT
No reported NOTAMs for that airfield.



MET'MAP, your aeronautical weather chart ! - Copyright ORBIFLY December 2007 - Disclaimer

ORBIFLY MET'MAP TEAM :

Programming & Development : Alexandra Zaïnal
Concept & Development : Baudouin d'Aumeries
Co-Development & Prog : Marc-Olivier Méhu
Technical & hardware support : Manuel Goepfert

Contact : metmap@orbifly.com




SOURCES & CREDITS :

   NOAA